sensor_id;sensor_type;location;lat;lon;timestamp;pressure;altitude;pressure_sealevel;temperature;humidity
23321;BME280;33376;51.306;4.752;2022-07-22T00:00:04;102524.91;;;14.03;100.00
23321;BME280;33376;51.306;4.752;2022-07-22T00:02:30;102517.19;;;13.97;100.00
23321;BME280;33376;51.306;4.752;2022-07-22T00:04:55;102519.84;;;13.97;100.00
23321;BME280;33376;51.306;4.752;2022-07-22T00:07:21;102520.81;;;13.95;100.00
23321;BME280;33376;51.306;4.752;2022-07-22T00:09:46;102518.44;;;13.89;100.00
23321;BME280;33376;51.306;4.752;2022-07-22T00:12:11;102520.28;;;13.87;100.00
23321;BME280;33376;51.306;4.752;2022-07-22T00:14:37;102520.47;;;13.82;100.00
23321;BME280;33376;51.306;4.752;2022-07-22T00:17:02;102531.13;;;13.82;100.00
23321;BME280;33376;51.306;4.752;2022-07-22T00:19:27;102520.66;;;13.78;100.00
23321;BME280;33376;51.306;4.752;2022-07-22T00:21:52;102520.72;;;13.76;100.00
23321;BME280;33376;51.306;4.752;2022-07-22T00:24:18;102511.00;;;13.75;100.00
23321;BME280;33376;51.306;4.752;2022-07-22T00:26:43;102521.97;;;13.68;100.00
23321;BME280;33376;51.306;4.752;2022-07-22T00:29:08;102519.31;;;13.68;100.00
23321;BME280;33376;51.306;4.752;2022-07-22T00:31:34;102520.31;;;13.65;100.00
23321;BME280;33376;51.306;4.752;2022-07-22T00:34:00;102520.56;;;13.59;100.00
23321;BME280;33376;51.306;4.752;2022-07-22T00:36:29;102517.91;;;13.59;100.00
23321;BME280;33376;51.306;4.752;2022-07-22T00:38:54;102522.22;;;13.62;100.00
23321;BME280;33376;51.306;4.752;2022-07-22T00:41:20;102522.66;;;13.51;100.00
23321;BME280;33376;51.306;4.752;2022-07-22T00:44:18;102522.72;;;13.50;100.00
23321;BME280;33376;51.306;4.752;2022-07-22T00:46:37;102531.63;;;13.49;100.00
23321;BME280;33376;51.306;4.752;2022-07-22T00:49:03;102528.13;;;13.48;100.00
23321;BME280;33376;51.306;4.752;2022-07-22T00:51:29;102524.66;;;13.46;100.00
23321;BME280;33376;51.306;4.752;2022-07-22T00:53:55;102524.78;;;13.43;100.00
23321;BME280;33376;51.306;4.752;2022-07-22T00:56:22;102522.88;;;13.45;100.00
23321;BME280;33376;51.306;4.752;2022-07-22T00:58:48;102526.44;;;13.46;100.00
23321;BME280;33376;51.306;4.752;2022-07-22T01:01:14;102526.81;;;13.37;100.00
23321;BME280;33376;51.306;4.752;2022-07-22T01:03:40;102519.72;;;13.36;100.00
23321;BME280;33376;51.306;4.752;2022-07-22T01:06:05;102523.31;;;13.35;100.00
23321;BME280;33376;51.306;4.752;2022-07-22T01:08:31;102527.84;;;13.33;100.00
23321;BME280;33376;51.306;4.752;2022-07-22T01:11:10;102529.72;;;13.31;100.00
23321;BME280;33376;51.306;4.752;2022-07-22T01:13:35;102526.06;;;13.33;100.00
23321;BME280;33376;51.306;4.752;2022-07-22T01:16:01;102523.50;;;13.30;100.00
23321;BME280;33376;51.306;4.752;2022-07-22T01:18:27;102520.91;;;13.29;100.00
23321;BME280;33376;51.306;4.752;2022-07-22T01:20:52;102525.28;;;13.30;100.00
23321;BME280;33376;51.306;4.752;2022-07-22T01:23:17;102518.13;;;13.32;100.00
23321;BME280;33376;51.306;4.752;2022-07-22T01:25:43;102520.91;;;13.29;100.00
23321;BME280;33376;51.306;4.752;2022-07-22T01:28:08;102518.25;;;13.29;100.00
23321;BME280;33376;51.306;4.752;2022-07-22T01:30:33;102522.81;;;13.25;100.00
23321;BME280;33376;51.306;4.752;2022-07-22T01:32:58;102518.38;;;13.26;100.00
23321;BME280;33376;51.306;4.752;2022-07-22T01:35:24;102511.97;;;13.30;100.00
23321;BME280;33376;51.306;4.752;2022-07-22T01:37:49;102511.41;;;13.21;100.00
23321;BME280;33376;51.306;4.752;2022-07-22T01:40:14;102513.50;;;13.13;100.00
23321;BME280;33376;51.306;4.752;2022-07-22T01:42:39;102507.25;;;13.14;100.00
23321;BME280;33376;51.306;4.752;2022-07-22T01:45:05;102509.88;;;13.16;100.00
23321;BME280;33376;51.306;4.752;2022-07-22T01:47:30;102503.78;;;13.12;100.00
23321;BME280;33376;51.306;4.752;2022-07-22T01:49:55;102502.16;;;13.08;100.00
23321;BME280;33376;51.306;4.752;2022-07-22T01:52:21;102507.59;;;13.05;100.00
23321;BME280;33376;51.306;4.752;2022-07-22T01:54:46;102504.88;;;13.07;100.00
23321;BME280;33376;51.306;4.752;2022-07-22T01:57:11;102509.66;;;12.97;100.00
23321;BME280;33376;51.306;4.752;2022-07-22T01:59:36;102501.97;;;12.90;100.00
23321;BME280;33376;51.306;4.752;2022-07-22T02:02:01;102502.25;;;12.82;100.00
23321;BME280;33376;51.306;4.752;2022-07-22T02:04:27;102494.16;;;12.85;100.00
23321;BME280;33376;51.306;4.752;2022-07-22T02:06:52;102491.63;;;12.82;100.00
23321;BME280;33376;51.306;4.752;2022-07-22T02:09:17;102495.13;;;12.83;100.00
23321;BME280;33376;51.306;4.752;2022-07-22T02:11:43;102497.78;;;12.83;100.00
23321;BME280;33376;51.306;4.752;2022-07-22T02:14:08;102487.44;;;12.75;100.00
23321;BME280;33376;51.306;4.752;2022-07-22T02:16:33;102484.66;;;12.78;100.00
23321;BME280;33376;51.306;4.752;2022-07-22T02:18:58;102483.22;;;12.70;100.00
23321;BME280;33376;51.306;4.752;2022-07-22T02:21:24;102474.84;;;12.56;100.00
23321;BME280;33376;51.306;4.752;2022-07-22T02:23:49;102473.78;;;12.61;100.00
23321;BME280;33376;51.306;4.752;2022-07-22T02:26:15;102472.13;;;12.57;100.00
23321;BME280;33376;51.306;4.752;2022-07-22T02:28:40;102476.91;;;12.49;100.00
23321;BME280;33376;51.306;4.752;2022-07-22T02:31:05;102474.78;;;12.34;100.00
23321;BME280;33376;51.306;4.752;2022-07-22T02:33:30;102466.28;;;12.25;100.00
23321;BME280;33376;51.306;4.752;2022-07-22T02:35:56;102467.28;;;12.21;100.00
23321;BME280;33376;51.306;4.752;2022-07-22T02:38:21;102467.28;;;12.21;100.00
23321;BME280;33376;51.306;4.752;2022-07-22T02:40:46;102471.53;;;12.26;100.00
23321;BME280;33376;51.306;4.752;2022-07-22T02:43:12;102460.06;;;12.24;100.00
23321;BME280;33376;51.306;4.752;2022-07-22T02:45:37;102456.50;;;12.25;100.00
23321;BME280;33376;51.306;4.752;2022-07-22T02:48:02;102464.63;;;12.21;100.00
23321;BME280;33376;51.306;4.752;2022-07-22T02:50:27;102464.44;;;12.27;100.00
23321;BME280;33376;51.306;4.752;2022-07-22T02:52:53;102454.63;;;12.27;100.00
23321;BME280;33376;51.306;4.752;2022-07-22T02:55:18;102451.25;;;12.24;100.00
23321;BME280;33376;51.306;4.752;2022-07-22T02:57:43;102457.28;;;12.27;100.00
23321;BME280;33376;51.306;4.752;2022-07-22T03:00:09;102458.13;;;12.29;100.00
23321;BME280;33376;51.306;4.752;2022-07-22T03:02:36;102462.63;;;12.27;100.00
23321;BME280;33376;51.306;4.752;2022-07-22T03:05:02;102463.38;;;12.31;100.00
23321;BME280;33376;51.306;4.752;2022-07-22T03:07:27;102462.50;;;12.30;100.00
23321;BME280;33376;51.306;4.752;2022-07-22T03:09:52;102462.50;;;12.30;100.00
23321;BME280;33376;51.306;4.752;2022-07-22T03:12:18;102467.81;;;12.30;100.00
23321;BME280;33376;51.306;4.752;2022-07-22T03:14:43;102464.25;;;12.31;100.00
23321;BME280;33376;51.306;4.752;2022-07-22T03:17:08;102466.16;;;12.28;100.00
23321;BME280;33376;51.306;4.752;2022-07-22T03:19:33;102472.41;;;12.27;100.00
23321;BME280;33376;51.306;4.752;2022-07-22T03:21:59;102472.53;;;12.24;100.00
23321;BME280;33376;51.306;4.752;2022-07-22T03:24:24;102472.53;;;12.22;100.00
23321;BME280;33376;51.306;4.752;2022-07-22T03:26:49;102475.25;;;12.21;100.00
23321;BME280;33376;51.306;4.752;2022-07-22T03:29:14;102476.25;;;12.18;100.00
23321;BME280;33376;51.306;4.752;2022-07-22T03:31:40;102479.13;;;12.12;100.00
23321;BME280;33376;51.306;4.752;2022-07-22T03:34:05;102489.84;;;12.11;100.00
23321;BME280;33376;51.306;4.752;2022-07-22T03:36:30;102475.66;;;12.10;100.00
23321;BME280;33376;51.306;4.752;2022-07-22T03:38:56;102476.47;;;12.12;100.00
23321;BME280;33376;51.306;4.752;2022-07-22T03:41:21;102470.28;;;12.12;100.00
23321;BME280;33376;51.306;4.752;2022-07-22T03:43:47;102465.06;;;12.09;100.00
23321;BME280;33376;51.306;4.752;2022-07-22T03:46:12;102461.75;;;12.02;100.00
23321;BME280;33376;51.306;4.752;2022-07-22T03:48:37;102459.88;;;12.06;100.00
23321;BME280;33376;51.306;4.752;2022-07-22T03:51:03;102464.41;;;12.02;100.00
23321;BME280;33376;51.306;4.752;2022-07-22T03:53:28;102471.72;;;11.96;100.00
23321;BME280;33376;51.306;4.752;2022-07-22T03:55:53;102474.22;;;11.75;100.00
23321;BME280;33376;51.306;4.752;2022-07-22T03:58:18;102468.47;;;11.60;100.00
23321;BME280;33376;51.306;4.752;2022-07-22T04:00:44;102475.47;;;11.64;100.00
23321;BME280;33376;51.306;4.752;2022-07-22T04:03:09;102470.06;;;11.67;100.00
23321;BME280;33376;51.306;4.752;2022-07-22T04:05:34;102464.00;;;11.62;100.00
23321;BME280;33376;51.306;4.752;2022-07-22T04:08:00;102459.56;;;11.62;100.00
23321;BME280;33376;51.306;4.752;2022-07-22T04:10:25;102458.72;;;11.60;100.00
23321;BME280;33376;51.306;4.752;2022-07-22T04:12:50;102462.22;;;11.62;100.00
23321;BME280;33376;51.306;4.752;2022-07-22T04:15:15;102459.72;;;11.58;100.00
23321;BME280;33376;51.306;4.752;2022-07-22T04:17:41;102459.78;;;11.56;100.00
23321;BME280;33376;51.306;4.752;2022-07-22T04:20:06;102461.38;;;11.60;100.00
23321;BME280;33376;51.306;4.752;2022-07-22T04:22:32;102459.38;;;11.68;100.00
23321;BME280;33376;51.306;4.752;2022-07-22T04:24:57;102457.28;;;11.78;100.00
23321;BME280;33376;51.306;4.752;2022-07-22T04:27:22;102446.53;;;11.81;100.00
23321;BME280;33376;51.306;4.752;2022-07-22T04:29:48;102455.63;;;11.75;100.00
23321;BME280;33376;51.306;4.752;2022-07-22T04:32:14;102443.38;;;11.70;100.00
23321;BME280;33376;51.306;4.752;2022-07-22T04:34:39;102452.22;;;11.70;100.00
23321;BME280;33376;51.306;4.752;2022-07-22T04:37:04;102449.63;;;11.69;100.00
23321;BME280;33376;51.306;4.752;2022-07-22T04:39:30;102441.28;;;11.79;100.00
23321;BME280;33376;51.306;4.752;2022-07-22T04:41:55;102443.72;;;11.86;100.00
23321;BME280;33376;51.306;4.752;2022-07-22T04:44:20;102439.50;;;12.05;100.00
23321;BME280;33376;51.306;4.752;2022-07-22T04:46:45;102435.44;;;12.19;100.00
23321;BME280;33376;51.306;4.752;2022-07-22T04:49:11;102437.50;;;12.36;100.00
23321;BME280;33376;51.306;4.752;2022-07-22T04:51:36;102433.28;;;12.53;100.00
23321;BME280;33376;51.306;4.752;2022-07-22T04:54:01;102436.03;;;12.73;100.00
23321;BME280;33376;51.306;4.752;2022-07-22T04:56:26;102435.28;;;12.93;100.00
23321;BME280;33376;51.306;4.752;2022-07-22T04:58:52;102429.22;;;13.12;100.00
23321;BME280;33376;51.306;4.752;2022-07-22T05:01:17;102424.47;;;13.41;100.00
23321;BME280;33376;51.306;4.752;2022-07-22T05:03:42;102419.16;;;13.62;100.00
23321;BME280;33376;51.306;4.752;2022-07-22T05:06:08;102419.97;;;13.84;100.00
23321;BME280;33376;51.306;4.752;2022-07-22T05:08:34;102421.69;;;14.05;100.00
23321;BME280;33376;51.306;4.752;2022-07-22T05:10:59;102408.28;;;14.27;100.00
23321;BME280;33376;51.306;4.752;2022-07-22T05:13:24;102400.59;;;14.39;100.00
23321;BME280;33376;51.306;4.752;2022-07-22T05:15:50;102404.44;;;14.52;100.00
23321;BME280;33376;51.306;4.752;2022-07-22T05:18:15;102397.81;;;14.61;100.00
23321;BME280;33376;51.306;4.752;2022-07-22T05:20:41;102392.25;;;14.65;100.00
23321;BME280;33376;51.306;4.752;2022-07-22T05:23:06;102391.53;;;14.62;100.00
23321;BME280;33376;51.306;4.752;2022-07-22T05:25:31;102392.03;;;14.70;100.00
23321;BME280;33376;51.306;4.752;2022-07-22T05:27:57;102390.16;;;14.91;100.00
23321;BME280;33376;51.306;4.752;2022-07-22T05:30:22;102384.81;;;14.91;100.00
23321;BME280;33376;51.306;4.752;2022-07-22T05:32:47;102372.34;;;15.08;100.00
23321;BME280;33376;51.306;4.752;2022-07-22T05:35:13;102356.16;;;15.98;100.00
23321;BME280;33376;51.306;4.752;2022-07-22T05:37:38;102323.97;;;17.10;100.00
23321;BME280;33376;51.306;4.752;2022-07-22T05:40:04;102230.25;;;18.63;100.00
23321;BME280;33376;51.306;4.752;2022-07-22T05:42:29;102112.19;;;19.49;100.00
23321;BME280;33376;51.306;4.752;2022-07-22T05:44:54;102039.19;;;20.94;100.00
23321;BME280;33376;51.306;4.752;2022-07-22T05:47:19;102085.34;;;21.79;100.00
23321;BME280;33376;51.306;4.752;2022-07-22T05:49:45;102142.34;;;23.13;100.00
23321;BME280;33376;51.306;4.752;2022-07-22T05:52:10;102199.91;;;24.26;100.00
23321;BME280;33376;51.306;4.752;2022-07-22T05:54:35;102260.47;;;24.95;100.00
23321;BME280;33376;51.306;4.752;2022-07-22T05:57:00;102324.09;;;24.02;100.00
23321;BME280;33376;51.306;4.752;2022-07-22T05:59:26;102320.22;;;24.65;100.00
23321;BME280;33376;51.306;4.752;2022-07-22T06:01:51;102322.03;;;25.23;100.00
23321;BME280;33376;51.306;4.752;2022-07-22T06:04:17;102342.97;;;24.83;100.00
23321;BME280;33376;51.306;4.752;2022-07-22T06:06:42;102340.13;;;24.85;100.00
23321;BME280;33376;51.306;4.752;2022-07-22T06:09:07;102349.38;;;25.50;100.00
23321;BME280;33376;51.306;4.752;2022-07-22T06:11:32;102359.38;;;25.78;100.00
23321;BME280;33376;51.306;4.752;2022-07-22T06:13:58;102338.94;;;26.57;100.00
23321;BME280;33376;51.306;4.752;2022-07-22T06:16:23;102375.56;;;25.61;100.00
23321;BME280;33376;51.306;4.752;2022-07-22T06:18:48;102358.41;;;26.62;100.00
23321;BME280;33376;51.306;4.752;2022-07-22T06:21:13;102377.19;;;26.92;100.00
23321;BME280;33376;51.306;4.752;2022-07-22T06:23:39;102384.38;;;25.91;100.00
23321;BME280;33376;51.306;4.752;2022-07-22T06:26:04;102408.94;;;24.74;100.00
23321;BME280;33376;51.306;4.752;2022-07-22T06:28:29;102426.25;;;23.91;100.00
23321;BME280;33376;51.306;4.752;2022-07-22T06:30:55;102435.00;;;22.87;100.00
23321;BME280;33376;51.306;4.752;2022-07-22T06:33:20;102427.28;;;23.47;100.00
23321;BME280;33376;51.306;4.752;2022-07-22T06:35:45;102429.91;;;24.42;100.00
23321;BME280;33376;51.306;4.752;2022-07-22T06:38:10;102427.28;;;24.61;100.00
23321;BME280;33376;51.306;4.752;2022-07-22T06:40:36;102432.44;;;24.94;100.00
23321;BME280;33376;51.306;4.752;2022-07-22T06:43:01;102442.88;;;23.01;100.00
23321;BME280;33376;51.306;4.752;2022-07-22T06:45:27;102461.88;;;22.22;100.00
23321;BME280;33376;51.306;4.752;2022-07-22T06:47:53;102471.22;;;22.40;100.00
23321;BME280;33376;51.306;4.752;2022-07-22T06:50:18;102470.19;;;22.08;100.00
23321;BME280;33376;51.306;4.752;2022-07-22T06:52:43;102483.75;;;21.96;100.00
23321;BME280;33376;51.306;4.752;2022-07-22T06:55:09;102474.59;;;22.55;100.00
23321;BME280;33376;51.306;4.752;2022-07-22T06:57:34;102471.59;;;22.47;100.00
23321;BME280;33376;51.306;4.752;2022-07-22T07:00:00;102461.56;;;24.83;100.00
23321;BME280;33376;51.306;4.752;2022-07-22T07:02:25;102446.09;;;24.83;100.00
23321;BME280;33376;51.306;4.752;2022-07-22T07:04:50;102446.28;;;23.79;100.00
23321;BME280;33376;51.306;4.752;2022-07-22T07:07:16;102440.31;;;22.66;100.00
23321;BME280;33376;51.306;4.752;2022-07-22T07:09:41;102434.50;;;23.15;100.00
23321;BME280;33376;51.306;4.752;2022-07-22T07:12:06;102442.19;;;23.53;100.00
23321;BME280;33376;51.306;4.752;2022-07-22T07:14:32;102456.63;;;23.09;100.00
23321;BME280;33376;51.306;4.752;2022-07-22T07:16:57;102457.00;;;22.49;100.00
23321;BME280;33376;51.306;4.752;2022-07-22T07:19:22;102457.75;;;23.29;100.00
23321;BME280;33376;51.306;4.752;2022-07-22T07:21:47;102458.28;;;22.78;100.00
23321;BME280;33376;51.306;4.752;2022-07-22T07:24:13;102465.28;;;22.92;100.00
23321;BME280;33376;51.306;4.752;2022-07-22T07:26:38;102447.03;;;23.16;100.00
23321;BME280;33376;51.306;4.752;2022-07-22T07:29:03;102469.53;;;21.57;100.00
23321;BME280;33376;51.306;4.752;2022-07-22T07:31:29;102486.34;;;20.89;100.00
23321;BME280;33376;51.306;4.752;2022-07-22T07:33:54;102479.16;;;22.65;100.00
23321;BME280;33376;51.306;4.752;2022-07-22T07:36:20;102468.13;;;21.88;100.00
23321;BME280;33376;51.306;4.752;2022-07-22T07:38:45;102472.25;;;21.34;100.00
23321;BME280;33376;51.306;4.752;2022-07-22T07:41:10;102467.31;;;21.28;100.00
23321;BME280;33376;51.306;4.752;2022-07-22T07:43:35;102479.44;;;20.85;100.00
23321;BME280;33376;51.306;4.752;2022-07-22T07:46:01;102500.25;;;19.93;100.00
23321;BME280;33376;51.306;4.752;2022-07-22T07:48:26;102500.91;;;19.97;100.00
23321;BME280;33376;51.306;4.752;2022-07-22T07:50:51;102501.72;;;19.58;100.00
23321;BME280;33376;51.306;4.752;2022-07-22T07:53:17;102500.84;;;19.72;100.00
23321;BME280;33376;51.306;4.752;2022-07-22T07:55:42;102486.25;;;21.03;100.00
23321;BME280;33376;51.306;4.752;2022-07-22T07:58:07;102487.19;;;21.74;100.00
23321;BME280;33376;51.306;4.752;2022-07-22T08:00:33;102485.88;;;21.20;100.00
23321;BME280;33376;51.306;4.752;2022-07-22T08:02:59;102469.91;;;21.53;100.00
23321;BME280;33376;51.306;4.752;2022-07-22T08:05:25;102462.88;;;21.98;100.00
23321;BME280;33376;51.306;4.752;2022-07-22T08:07:50;102482.44;;;22.01;100.00
23321;BME280;33376;51.306;4.752;2022-07-22T08:10:16;102482.97;;;21.83;100.00
23321;BME280;33376;51.306;4.752;2022-07-22T08:12:42;102487.88;;;20.80;100.00
23321;BME280;33376;51.306;4.752;2022-07-22T08:15:07;102497.47;;;20.47;100.00
23321;BME280;33376;51.306;4.752;2022-07-22T08:17:33;102496.41;;;20.74;100.00
23321;BME280;33376;51.306;4.752;2022-07-22T08:19:58;102509.13;;;20.60;100.00
23321;BME280;33376;51.306;4.752;2022-07-22T08:22:24;102495.63;;;20.85;100.00
23321;BME280;33376;51.306;4.752;2022-07-22T08:24:49;102499.72;;;20.65;100.00
23321;BME280;33376;51.306;4.752;2022-07-22T08:27:14;102501.56;;;20.40;100.00
23321;BME280;33376;51.306;4.752;2022-07-22T08:29:40;102493.69;;;20.62;100.00
23321;BME280;33376;51.306;4.752;2022-07-22T08:32:05;102487.72;;;21.19;100.00
23321;BME280;33376;51.306;4.752;2022-07-22T08:34:30;102496.38;;;21.48;100.00
23321;BME280;33376;51.306;4.752;2022-07-22T08:36:56;102481.81;;;21.02;100.00
23321;BME280;33376;51.306;4.752;2022-07-22T08:39:21;102489.38;;;20.47;100.00
23321;BME280;33376;51.306;4.752;2022-07-22T08:41:46;102497.59;;;20.06;100.00
23321;BME280;33376;51.306;4.752;2022-07-22T08:44:11;102491.22;;;20.96;100.00
23321;BME280;33376;51.306;4.752;2022-07-22T08:46:37;102485.38;;;21.02;100.00
23321;BME280;33376;51.306;4.752;2022-07-22T08:49:02;102475.81;;;21.34;100.00
23321;BME280;33376;51.306;4.752;2022-07-22T08:51:28;102468.97;;;21.41;100.00
23321;BME280;33376;51.306;4.752;2022-07-22T08:53:54;102463.47;;;21.66;100.00
23321;BME280;33376;51.306;4.752;2022-07-22T08:56:19;102480.44;;;21.92;100.00
23321;BME280;33376;51.306;4.752;2022-07-22T08:58:44;102485.03;;;21.55;100.00
23321;BME280;33376;51.306;4.752;2022-07-22T09:01:11;102478.78;;;21.19;100.00
23321;BME280;33376;51.306;4.752;2022-07-22T09:03:44;102486.00;;;21.78;100.00
23321;BME280;33376;51.306;4.752;2022-07-22T09:06:10;102480.94;;;20.89;100.00
23321;BME280;33376;51.306;4.752;2022-07-22T09:08:49;102490.22;;;21.10;100.00
23321;BME280;33376;51.306;4.752;2022-07-22T09:11:15;102470.59;;;21.44;100.00
23321;BME280;33376;51.306;4.752;2022-07-22T09:13:42;102480.69;;;21.29;100.00
23321;BME280;33376;51.306;4.752;2022-07-22T09:16:07;102489.56;;;20.94;100.00
23321;BME280;33376;51.306;4.752;2022-07-22T09:18:52;102469.06;;;21.76;100.00
23321;BME280;33376;51.306;4.752;2022-07-22T09:21:17;102469.78;;;21.54;100.00
23321;BME280;33376;51.306;4.752;2022-07-22T09:23:42;102452.25;;;22.18;100.00
23321;BME280;33376;51.306;4.752;2022-07-22T09:26:08;102469.31;;;22.64;100.00
23321;BME280;33376;51.306;4.752;2022-07-22T09:28:34;102445.34;;;23.15;100.00
23321;BME280;33376;51.306;4.752;2022-07-22T09:30:59;102435.16;;;24.13;100.00
23321;BME280;33376;51.306;4.752;2022-07-22T09:33:25;102413.53;;;24.53;100.00
23321;BME280;33376;51.306;4.752;2022-07-22T09:35:50;102429.25;;;24.59;100.00
23321;BME280;33376;51.306;4.752;2022-07-22T09:38:17;102422.91;;;23.67;100.00
23321;BME280;33376;51.306;4.752;2022-07-22T09:40:43;102426.41;;;24.30;100.00
23321;BME280;33376;51.306;4.752;2022-07-22T09:43:10;102416.41;;;24.31;100.00
23321;BME280;33376;51.306;4.752;2022-07-22T09:45:44;102432.78;;;23.03;100.00
23321;BME280;33376;51.306;4.752;2022-07-22T09:48:09;102453.69;;;22.90;100.00
23321;BME280;33376;51.306;4.752;2022-07-22T09:50:34;102458.28;;;21.76;100.00
23321;BME280;33376;51.306;4.752;2022-07-22T09:53:00;102466.31;;;21.52;100.00
23321;BME280;33376;51.306;4.752;2022-07-22T09:55:26;102467.00;;;21.20;100.00
23321;BME280;33376;51.306;4.752;2022-07-22T09:57:52;102468.22;;;22.67;100.00
23321;BME280;33376;51.306;4.752;2022-07-22T10:00:23;102451.38;;;22.07;100.00
23321;BME280;33376;51.306;4.752;2022-07-22T10:02:56;102467.00;;;21.80;100.00
23321;BME280;33376;51.306;4.752;2022-07-22T10:05:26;102480.63;;;22.91;100.00
23321;BME280;33376;51.306;4.752;2022-07-22T10:07:52;102441.28;;;24.36;100.00
23321;BME280;33376;51.306;4.752;2022-07-22T10:10:18;102442.47;;;23.70;100.00
23321;BME280;33376;51.306;4.752;2022-07-22T10:12:44;102448.28;;;23.12;100.00
23321;BME280;33376;51.306;4.752;2022-07-22T10:15:11;102451.81;;;24.09;100.00
23321;BME280;33376;51.306;4.752;2022-07-22T10:17:36;102458.94;;;22.36;100.00
23321;BME280;33376;51.306;4.752;2022-07-22T10:20:03;102471.75;;;24.08;100.00
23321;BME280;33376;51.306;4.752;2022-07-22T10:25:03;102453.97;;;22.65;100.00
23321;BME280;33376;51.306;4.752;2022-07-22T10:30:13;102460.44;;;23.17;100.00
23321;BME280;33376;51.306;4.752;2022-07-22T10:32:39;102449.53;;;22.75;100.00
23321;BME280;33376;51.306;4.752;2022-07-22T10:45:17;102448.28;;;23.12;100.00
23321;BME280;33376;51.306;4.752;2022-07-22T10:53:16;102477.53;;;22.06;100.00
23321;BME280;33376;51.306;4.752;2022-07-22T10:55:57;102472.56;;;22.35;100.00
23321;BME280;33376;51.306;4.752;2022-07-22T11:01:01;102458.78;;;22.27;100.00
23321;BME280;33376;51.306;4.752;2022-07-22T11:03:28;102456.28;;;22.69;100.00
23321;BME280;33376;51.306;4.752;2022-07-22T11:05:54;102447.63;;;22.31;100.00
23321;BME280;33376;51.306;4.752;2022-07-22T11:08:19;102431.66;;;22.39;100.00
23321;BME280;33376;51.306;4.752;2022-07-22T11:10:47;102451.38;;;22.74;100.00
23321;BME280;33376;51.306;4.752;2022-07-22T11:13:29;102431.00;;;22.14;100.00
23321;BME280;33376;51.306;4.752;2022-07-22T11:15:54;102437.44;;;22.35;100.00
23321;BME280;33376;51.306;4.752;2022-07-22T11:18:20;102437.91;;;22.18;100.00
23321;BME280;33376;51.306;4.752;2022-07-22T11:20:46;102416.06;;;21.86;100.00
23321;BME280;33376;51.306;4.752;2022-07-22T11:23:13;102429.00;;;23.80;100.00
23321;BME280;33376;51.306;4.752;2022-07-22T11:25:38;102389.91;;;23.93;100.00
23321;BME280;33376;51.306;4.752;2022-07-22T11:28:03;102371.13;;;23.17;100.00
23321;BME280;33376;51.306;4.752;2022-07-22T11:30:29;102370.88;;;24.25;100.00
23321;BME280;33376;51.306;4.752;2022-07-22T11:32:54;102374.69;;;23.29;100.00
23321;BME280;33376;51.306;4.752;2022-07-22T11:35:19;102384.72;;;22.95;100.00
23321;BME280;33376;51.306;4.752;2022-07-22T11:37:54;102389.19;;;23.28;100.00
23321;BME280;33376;51.306;4.752;2022-07-22T11:40:19;102360.31;;;24.62;100.00
23321;BME280;33376;51.306;4.752;2022-07-22T11:42:45;102350.06;;;25.81;100.00
23321;BME280;33376;51.306;4.752;2022-07-22T11:45:10;102329.59;;;25.10;100.00
23321;BME280;33376;51.306;4.752;2022-07-22T11:47:35;102336.13;;;24.79;100.00
23321;BME280;33376;51.306;4.752;2022-07-22T11:50:01;102354.22;;;23.68;100.00
23321;BME280;33376;51.306;4.752;2022-07-22T11:52:26;102344.88;;;23.40;100.00
23321;BME280;33376;51.306;4.752;2022-07-22T11:54:51;102384.81;;;23.48;100.00
23321;BME280;33376;51.306;4.752;2022-07-22T11:57:17;102354.75;;;24.63;100.00
23321;BME280;33376;51.306;4.752;2022-07-22T11:59:42;102337.59;;;25.21;100.00
23321;BME280;33376;51.306;4.752;2022-07-22T12:02:07;102347.25;;;23.95;100.00
23321;BME280;33376;51.306;4.752;2022-07-22T12:04:34;102353.88;;;23.30;100.00
23321;BME280;33376;51.306;4.752;2022-07-22T12:07:00;102361.34;;;22.83;100.00
23321;BME280;33376;51.306;4.752;2022-07-22T12:09:28;102360.28;;;22.75;100.00
23321;BME280;33376;51.306;4.752;2022-07-22T12:11:55;102364.03;;;23.05;100.00
23321;BME280;33376;51.306;4.752;2022-07-22T12:14:23;102366.44;;;24.03;100.00
23321;BME280;33376;51.306;4.752;2022-07-22T12:16:53;102346.88;;;23.27;100.00
23321;BME280;33376;51.306;4.752;2022-07-22T12:19:19;102375.13;;;22.80;100.00
23321;BME280;33376;51.306;4.752;2022-07-22T12:21:52;102367.41;;;23.41;100.00
23321;BME280;33376;51.306;4.752;2022-07-22T12:24:25;102375.06;;;23.25;100.00
23321;BME280;33376;51.306;4.752;2022-07-22T12:26:51;102371.22;;;22.84;100.00
23321;BME280;33376;51.306;4.752;2022-07-22T12:31:45;102354.59;;;22.89;100.00
23321;BME280;33376;51.306;4.752;2022-07-22T12:34:11;102363.88;;;23.29;100.00
23321;BME280;33376;51.306;4.752;2022-07-22T12:36:36;102363.34;;;23.35;100.00
23321;BME280;33376;51.306;4.752;2022-07-22T12:39:11;102357.31;;;22.89;100.00
23321;BME280;33376;51.306;4.752;2022-07-22T12:41:43;102353.03;;;23.29;100.00
23321;BME280;33376;51.306;4.752;2022-07-22T12:44:14;102367.53;;;22.74;100.00
23321;BME280;33376;51.306;4.752;2022-07-22T12:46:47;102369.25;;;22.75;100.00
23321;BME280;33376;51.306;4.752;2022-07-22T12:49:12;102382.53;;;22.56;100.00
23321;BME280;33376;51.306;4.752;2022-07-22T12:51:37;102365.81;;;22.84;100.00
23321;BME280;33376;51.306;4.752;2022-07-22T12:54:03;102388.41;;;22.83;100.00
23321;BME280;33376;51.306;4.752;2022-07-22T12:56:28;102399.66;;;23.10;100.00
23321;BME280;33376;51.306;4.752;2022-07-22T12:58:53;102382.06;;;22.62;100.00